sensor_id;sensor_type;location;lat;lon;timestamp;P1;durP1;ratioP1;P2;durP2;ratioP2
5876;SDS011;2964;42.144;24.730;2022-09-17T00:01:27;5.80;;;3.57;;
5876;SDS011;2964;42.144;24.730;2022-09-17T00:03:56;9.37;;;3.33;;
5876;SDS011;2964;42.144;24.730;2022-09-17T00:06:28;6.87;;;3.97;;
5876;SDS011;2964;42.144;24.730;2022-09-17T00:08:56;6.20;;;3.70;;
5876;SDS011;2964;42.144;24.730;2022-09-17T00:11:23;3.60;;;3.27;;
5876;SDS011;2964;42.144;24.730;2022-09-17T00:13:53;5.73;;;3.03;;
5876;SDS011;2964;42.144;24.730;2022-09-17T00:16:25;4.73;;;3.37;;
5876;SDS011;2964;42.144;24.730;2022-09-17T00:18:54;6.73;;;3.37;;
5876;SDS011;2964;42.144;24.730;2022-09-17T00:21:21;3.87;;;3.43;;
5876;SDS011;2964;42.144;24.730;2022-09-17T00:23:51;5.23;;;3.13;;
5876;SDS011;2964;42.144;24.730;2022-09-17T00:26:20;5.63;;;3.27;;
5876;SDS011;2964;42.144;24.730;2022-09-17T00:28:48;5.03;;;3.93;;
5876;SDS011;2964;42.144;24.730;2022-09-17T00:31:16;4.43;;;3.30;;
5876;SDS011;2964;42.144;24.730;2022-09-17T00:33:43;4.60;;;3.80;;
5876;SDS011;2964;42.144;24.730;2022-09-17T00:36:10;3.50;;;3.20;;
5876;SDS011;2964;42.144;24.730;2022-09-17T00:38:37;5.50;;;3.40;;
5876;SDS011;2964;42.144;24.730;2022-09-17T00:41:04;4.50;;;3.23;;
5876;SDS011;2964;42.144;24.730;2022-09-17T00:43:36;3.63;;;3.33;;
5876;SDS011;2964;42.144;24.730;2022-09-17T00:46:08;4.80;;;3.30;;
5876;SDS011;2964;42.144;24.730;2022-09-17T00:48:48;7.50;;;4.20;;
5876;SDS011;2964;42.144;24.730;2022-09-17T00:51:16;3.83;;;3.23;;
5876;SDS011;2964;42.144;24.730;2022-09-17T00:53:48;4.70;;;4.00;;
5876;SDS011;2964;42.144;24.730;2022-09-17T00:56:17;5.77;;;3.47;;
5876;SDS011;2964;42.144;24.730;2022-09-17T00:58:48;6.80;;;3.87;;
5876;SDS011;2964;42.144;24.730;2022-09-17T01:01:15;5.23;;;3.63;;
5876;SDS011;2964;42.144;24.730;2022-09-17T01:03:42;8.73;;;3.10;;
5876;SDS011;2964;42.144;24.730;2022-09-17T01:06:12;6.47;;;3.70;;
5876;SDS011;2964;42.144;24.730;2022-09-17T01:08:48;4.87;;;4.17;;
5876;SDS011;2964;42.144;24.730;2022-09-17T01:11:29;4.50;;;3.40;;
5876;SDS011;2964;42.144;24.730;2022-09-17T01:14:10;7.07;;;3.57;;
5876;SDS011;2964;42.144;24.730;2022-09-17T01:16:46;4.10;;;3.70;;
5876;SDS011;2964;42.144;24.730;2022-09-17T01:22:31;4.70;;;4.10;;
5876;SDS011;2964;42.144;24.730;2022-09-17T01:25:04;4.30;;;4.00;;
5876;SDS011;2964;42.144;24.730;2022-09-17T01:27:54;4.63;;;4.00;;
5876;SDS011;2964;42.144;24.730;2022-09-17T01:30:55;7.20;;;4.20;;
5876;SDS011;2964;42.144;24.730;2022-09-17T01:33:29;7.77;;;4.27;;
5876;SDS011;2964;42.144;24.730;2022-09-17T01:36:19;8.57;;;4.47;;
5876;SDS011;2964;42.144;24.730;2022-09-17T01:39:00;4.80;;;4.40;;
5876;SDS011;2964;42.144;24.730;2022-09-17T01:41:32;7.40;;;4.70;;
5876;SDS011;2964;42.144;24.730;2022-09-17T01:44:08;9.67;;;4.33;;
5876;SDS011;2964;42.144;24.730;2022-09-17T01:46:41;5.10;;;4.13;;
5876;SDS011;2964;42.144;24.730;2022-09-17T01:49:10;7.27;;;3.87;;
5876;SDS011;2964;42.144;24.730;2022-09-17T01:51:41;6.30;;;4.20;;
5876;SDS011;2964;42.144;24.730;2022-09-17T01:54:12;5.33;;;4.77;;
5876;SDS011;2964;42.144;24.730;2022-09-17T01:56:43;5.50;;;4.47;;
5876;SDS011;2964;42.144;24.730;2022-09-17T01:59:15;5.90;;;5.03;;
5876;SDS011;2964;42.144;24.730;2022-09-17T02:01:49;7.57;;;4.10;;
5876;SDS011;2964;42.144;24.730;2022-09-17T02:04:20;10.93;;;5.07;;
5876;SDS011;2964;42.144;24.730;2022-09-17T02:06:52;7.57;;;5.13;;
5876;SDS011;2964;42.144;24.730;2022-09-17T02:09:26;10.27;;;5.10;;
5876;SDS011;2964;42.144;24.730;2022-09-17T02:11:58;7.87;;;5.47;;
5876;SDS011;2964;42.144;24.730;2022-09-17T02:14:29;8.23;;;4.93;;
5876;SDS011;2964;42.144;24.730;2022-09-17T02:17:04;7.97;;;5.90;;
5876;SDS011;2964;42.144;24.730;2022-09-17T02:19:38;12.27;;;5.00;;
5876;SDS011;2964;42.144;24.730;2022-09-17T02:22:08;7.80;;;4.93;;
5876;SDS011;2964;42.144;24.730;2022-09-17T02:24:42;5.20;;;4.47;;
5876;SDS011;2964;42.144;24.730;2022-09-17T02:27:17;12.13;;;4.70;;
5876;SDS011;2964;42.144;24.730;2022-09-17T02:29:49;10.90;;;5.40;;
5876;SDS011;2964;42.144;24.730;2022-09-17T02:32:18;6.37;;;4.40;;
5876;SDS011;2964;42.144;24.730;2022-09-17T02:34:44;8.60;;;4.77;;
5876;SDS011;2964;42.144;24.730;2022-09-17T02:37:12;6.03;;;4.53;;
5876;SDS011;2964;42.144;24.730;2022-09-17T02:39:39;5.13;;;4.63;;
5876;SDS011;2964;42.144;24.730;2022-09-17T02:42:09;8.80;;;4.33;;
5876;SDS011;2964;42.144;24.730;2022-09-17T02:44:48;6.07;;;4.77;;
5876;SDS011;2964;42.144;24.730;2022-09-17T02:47:27;8.50;;;4.93;;
5876;SDS011;2964;42.144;24.730;2022-09-17T02:50:14;11.40;;;4.87;;
5876;SDS011;2964;42.144;24.730;2022-09-17T02:52:56;9.37;;;5.13;;
5876;SDS011;2964;42.144;24.730;2022-09-17T02:55:29;7.07;;;4.50;;
5876;SDS011;2964;42.144;24.730;2022-09-17T02:58:04;10.50;;;4.73;;
5876;SDS011;2964;42.144;24.730;2022-09-17T03:00:39;8.63;;;5.70;;
5876;SDS011;2964;42.144;24.730;2022-09-17T03:03:09;5.13;;;4.47;;
5876;SDS011;2964;42.144;24.730;2022-09-17T03:05:40;10.03;;;4.90;;
5876;SDS011;2964;42.144;24.730;2022-09-17T03:08:08;9.93;;;5.00;;
5876;SDS011;2964;42.144;24.730;2022-09-17T03:10:39;6.70;;;5.13;;
5876;SDS011;2964;42.144;24.730;2022-09-17T03:13:06;7.37;;;5.17;;
5876;SDS011;2964;42.144;24.730;2022-09-17T03:15:32;8.23;;;4.80;;
5876;SDS011;2964;42.144;24.730;2022-09-17T03:17:59;7.50;;;4.87;;
5876;SDS011;2964;42.144;24.730;2022-09-17T03:20:27;7.57;;;4.97;;
5876;SDS011;2964;42.144;24.730;2022-09-17T03:22:54;6.90;;;4.67;;
5876;SDS011;2964;42.144;24.730;2022-09-17T03:25:21;8.13;;;4.93;;
5876;SDS011;2964;42.144;24.730;2022-09-17T03:27:48;6.07;;;4.80;;
5876;SDS011;2964;42.144;24.730;2022-09-17T03:30:14;7.00;;;4.87;;
5876;SDS011;2964;42.144;24.730;2022-09-17T03:32:41;6.77;;;5.37;;
5876;SDS011;2964;42.144;24.730;2022-09-17T03:35:08;6.77;;;5.13;;
5876;SDS011;2964;42.144;24.730;2022-09-17T03:37:36;7.27;;;4.67;;
5876;SDS011;2964;42.144;24.730;2022-09-17T03:40:03;8.50;;;4.90;;
5876;SDS011;2964;42.144;24.730;2022-09-17T03:42:30;9.53;;;5.17;;
5876;SDS011;2964;42.144;24.730;2022-09-17T03:44:57;6.57;;;5.23;;
5876;SDS011;2964;42.144;24.730;2022-09-17T03:47:24;9.07;;;4.90;;
5876;SDS011;2964;42.144;24.730;2022-09-17T03:49:50;8.53;;;5.00;;
5876;SDS011;2964;42.144;24.730;2022-09-17T03:52:17;7.83;;;4.90;;
5876;SDS011;2964;42.144;24.730;2022-09-17T03:54:45;6.80;;;4.33;;
5876;SDS011;2964;42.144;24.730;2022-09-17T03:57:13;8.27;;;5.03;;
5876;SDS011;2964;42.144;24.730;2022-09-17T03:59:39;9.67;;;4.73;;
5876;SDS011;2964;42.144;24.730;2022-09-17T04:02:06;9.60;;;5.37;;
5876;SDS011;2964;42.144;24.730;2022-09-17T04:04:33;5.17;;;4.60;;
5876;SDS011;2964;42.144;24.730;2022-09-17T04:07:00;8.70;;;5.20;;
5876;SDS011;2964;42.144;24.730;2022-09-17T04:09:27;6.10;;;5.37;;
5876;SDS011;2964;42.144;24.730;2022-09-17T04:11:55;7.70;;;4.50;;
5876;SDS011;2964;42.144;24.730;2022-09-17T04:14:21;8.73;;;5.17;;
5876;SDS011;2964;42.144;24.730;2022-09-17T04:16:48;4.97;;;4.53;;
5876;SDS011;2964;42.144;24.730;2022-09-17T04:19:15;11.37;;;5.67;;
5876;SDS011;2964;42.144;24.730;2022-09-17T04:21:42;10.07;;;5.90;;
5876;SDS011;2964;42.144;24.730;2022-09-17T04:24:08;10.20;;;6.10;;
5876;SDS011;2964;42.144;24.730;2022-09-17T04:26:35;11.33;;;5.63;;
5876;SDS011;2964;42.144;24.730;2022-09-17T04:29:03;6.87;;;5.37;;
5876;SDS011;2964;42.144;24.730;2022-09-17T04:31:30;7.60;;;5.03;;
5876;SDS011;2964;42.144;24.730;2022-09-17T04:33:57;12.67;;;5.57;;
5876;SDS011;2964;42.144;24.730;2022-09-17T04:36:24;6.87;;;4.80;;
5876;SDS011;2964;42.144;24.730;2022-09-17T04:38:51;8.87;;;5.80;;
5876;SDS011;2964;42.144;24.730;2022-09-17T04:41:17;9.10;;;4.73;;
5876;SDS011;2964;42.144;24.730;2022-09-17T04:43:44;8.73;;;5.13;;
5876;SDS011;2964;42.144;24.730;2022-09-17T04:46:12;7.93;;;4.93;;
5876;SDS011;2964;42.144;24.730;2022-09-17T04:48:40;7.73;;;4.93;;
5876;SDS011;2964;42.144;24.730;2022-09-17T04:51:07;7.93;;;5.03;;
5876;SDS011;2964;42.144;24.730;2022-09-17T04:53:34;9.47;;;5.80;;
5876;SDS011;2964;42.144;24.730;2022-09-17T04:56:02;6.47;;;4.67;;
5876;SDS011;2964;42.144;24.730;2022-09-17T04:58:29;13.13;;;5.60;;
5876;SDS011;2964;42.144;24.730;2022-09-17T05:00:57;14.27;;;5.77;;
5876;SDS011;2964;42.144;24.730;2022-09-17T05:03:25;8.10;;;6.07;;
5876;SDS011;2964;42.144;24.730;2022-09-17T05:05:52;5.53;;;4.93;;
5876;SDS011;2964;42.144;24.730;2022-09-17T05:08:19;9.47;;;4.97;;
5876;SDS011;2964;42.144;24.730;2022-09-17T05:10:49;11.90;;;5.23;;
5876;SDS011;2964;42.144;24.730;2022-09-17T05:13:16;6.07;;;4.83;;
5876;SDS011;2964;42.144;24.730;2022-09-17T05:15:43;6.27;;;4.93;;
5876;SDS011;2964;42.144;24.730;2022-09-17T05:18:10;5.97;;;5.23;;
5876;SDS011;2964;42.144;24.730;2022-09-17T05:20:38;9.07;;;4.50;;
5876;SDS011;2964;42.144;24.730;2022-09-17T05:23:05;10.00;;;5.50;;
5876;SDS011;2964;42.144;24.730;2022-09-17T05:25:32;9.23;;;4.90;;
5876;SDS011;2964;42.144;24.730;2022-09-17T05:27:58;9.73;;;5.23;;
5876;SDS011;2964;42.144;24.730;2022-09-17T05:30:26;6.93;;;5.10;;
5876;SDS011;2964;42.144;24.730;2022-09-17T05:32:59;16.97;;;5.73;;
5876;SDS011;2964;42.144;24.730;2022-09-17T05:35:27;11.33;;;5.70;;
5876;SDS011;2964;42.144;24.730;2022-09-17T05:37:59;19.83;;;5.43;;
5876;SDS011;2964;42.144;24.730;2022-09-17T05:40:27;16.00;;;4.97;;
5876;SDS011;2964;42.144;24.730;2022-09-17T05:42:56;16.20;;;5.93;;
5876;SDS011;2964;42.144;24.730;2022-09-17T05:45:23;34.53;;;5.93;;
5876;SDS011;2964;42.144;24.730;2022-09-17T05:47:53;12.77;;;5.57;;
5876;SDS011;2964;42.144;24.730;2022-09-17T05:50:20;20.60;;;5.27;;
5876;SDS011;2964;42.144;24.730;2022-09-17T05:52:47;23.10;;;6.57;;
5876;SDS011;2964;42.144;24.730;2022-09-17T05:55:15;15.80;;;6.03;;
5876;SDS011;2964;42.144;24.730;2022-09-17T05:57:42;12.20;;;4.67;;
5876;SDS011;2964;42.144;24.730;2022-09-17T06:00:09;9.00;;;5.17;;
5876;SDS011;2964;42.144;24.730;2022-09-17T06:02:37;10.07;;;5.50;;
5876;SDS011;2964;42.144;24.730;2022-09-17T06:05:04;10.82;;;5.10;;
5876;SDS011;2964;42.144;24.730;2022-09-17T06:07:33;9.77;;;4.75;;
5876;SDS011;2964;42.144;24.730;2022-09-17T06:10:00;14.02;;;5.15;;
5876;SDS011;2964;42.144;24.730;2022-09-17T06:12:28;22.45;;;16.40;;
5876;SDS011;2964;42.144;24.730;2022-09-17T06:14:55;12.55;;;4.25;;
5876;SDS011;2964;42.144;24.730;2022-09-17T06:17:22;16.25;;;5.07;;
5876;SDS011;2964;42.144;24.730;2022-09-17T06:19:49;9.10;;;5.85;;
5876;SDS011;2964;42.144;24.730;2022-09-17T06:22:17;12.35;;;5.97;;
5876;SDS011;2964;42.144;24.730;2022-09-17T06:24:45;7.78;;;5.35;;
5876;SDS011;2964;42.144;24.730;2022-09-17T06:27:12;8.18;;;5.20;;
5876;SDS011;2964;42.144;24.730;2022-09-17T06:29:40;8.20;;;6.97;;
5876;SDS011;2964;42.144;24.730;2022-09-17T06:32:07;12.60;;;8.38;;
5876;SDS011;2964;42.144;24.730;2022-09-17T06:34:35;6.68;;;6.05;;
5876;SDS011;2964;42.144;24.730;2022-09-17T06:37:02;9.85;;;8.77;;
5876;SDS011;2964;42.144;24.730;2022-09-17T06:39:29;10.38;;;8.25;;
5876;SDS011;2964;42.144;24.730;2022-09-17T06:41:56;8.88;;;7.45;;
5876;SDS011;2964;42.144;24.730;2022-09-17T06:44:22;5.38;;;4.72;;
5876;SDS011;2964;42.144;24.730;2022-09-17T06:46:51;18.60;;;6.80;;
5876;SDS011;2964;42.144;24.730;2022-09-17T06:49:23;7.72;;;5.47;;
5876;SDS011;2964;42.144;24.730;2022-09-17T06:51:50;5.63;;;4.43;;
5876;SDS011;2964;42.144;24.730;2022-09-17T06:54:17;8.88;;;4.72;;
5876;SDS011;2964;42.144;24.730;2022-09-17T06:56:44;9.88;;;5.57;;
5876;SDS011;2964;42.144;24.730;2022-09-17T06:59:11;8.52;;;5.70;;
5876;SDS011;2964;42.144;24.730;2022-09-17T07:01:38;17.60;;;6.50;;
5876;SDS011;2964;42.144;24.730;2022-09-17T07:04:06;8.07;;;6.85;;
5876;SDS011;2964;42.144;24.730;2022-09-17T07:06:33;11.60;;;7.47;;
5876;SDS011;2964;42.144;24.730;2022-09-17T07:09:00;6.10;;;4.82;;
5876;SDS011;2964;42.144;24.730;2022-09-17T07:11:28;13.32;;;5.28;;
5876;SDS011;2964;42.144;24.730;2022-09-17T07:13:55;10.93;;;6.15;;
5876;SDS011;2964;42.144;24.730;2022-09-17T07:16:22;17.60;;;6.05;;
5876;SDS011;2964;42.144;24.730;2022-09-17T07:18:50;13.30;;;6.35;;
5876;SDS011;2964;42.144;24.730;2022-09-17T07:21:18;10.95;;;6.03;;
5876;SDS011;2964;42.144;24.730;2022-09-17T07:23:45;21.17;;;6.45;;
5876;SDS011;2964;42.144;24.730;2022-09-17T07:26:13;21.58;;;9.90;;
5876;SDS011;2964;42.144;24.730;2022-09-17T07:28:41;20.05;;;10.88;;
5876;SDS011;2964;42.144;24.730;2022-09-17T07:31:08;12.65;;;5.30;;
5876;SDS011;2964;42.144;24.730;2022-09-17T07:33:36;17.60;;;6.82;;
5876;SDS011;2964;42.144;24.730;2022-09-17T07:36:03;13.70;;;5.88;;
5876;SDS011;2964;42.144;24.730;2022-09-17T07:38:33;14.18;;;9.38;;
5876;SDS011;2964;42.144;24.730;2022-09-17T07:41:00;21.65;;;7.90;;
5876;SDS011;2964;42.144;24.730;2022-09-17T07:43:28;19.67;;;7.07;;
5876;SDS011;2964;42.144;24.730;2022-09-17T07:45:57;12.98;;;5.43;;
5876;SDS011;2964;42.144;24.730;2022-09-17T07:48:25;9.77;;;5.55;;
5876;SDS011;2964;42.144;24.730;2022-09-17T07:50:53;13.45;;;7.15;;
5876;SDS011;2964;42.144;24.730;2022-09-17T07:53:20;10.20;;;6.28;;
5876;SDS011;2964;42.144;24.730;2022-09-17T07:55:52;7.20;;;5.25;;
5876;SDS011;2964;42.144;24.730;2022-09-17T07:58:19;11.48;;;4.95;;
5876;SDS011;2964;42.144;24.730;2022-09-17T08:00:47;8.73;;;4.65;;
5876;SDS011;2964;42.144;24.730;2022-09-17T08:03:14;6.32;;;4.85;;
5876;SDS011;2964;42.144;24.730;2022-09-17T08:05:41;15.23;;;4.70;;
5876;SDS011;2964;42.144;24.730;2022-09-17T08:08:08;10.55;;;5.53;;
5876;SDS011;2964;42.144;24.730;2022-09-17T08:10:34;10.82;;;4.18;;
5876;SDS011;2964;42.144;24.730;2022-09-17T08:13:02;9.82;;;4.88;;
5876;SDS011;2964;42.144;24.730;2022-09-17T08:15:29;15.57;;;5.57;;
5876;SDS011;2964;42.144;24.730;2022-09-17T08:17:56;13.32;;;5.47;;
5876;SDS011;2964;42.144;24.730;2022-09-17T08:20:23;5.93;;;3.80;;
5876;SDS011;2964;42.144;24.730;2022-09-17T08:22:56;9.02;;;4.75;;
5876;SDS011;2964;42.144;24.730;2022-09-17T08:25:23;9.55;;;4.72;;
5876;SDS011;2964;42.144;24.730;2022-09-17T08:27:51;6.10;;;3.88;;
5876;SDS011;2964;42.144;24.730;2022-09-17T08:30:20;12.05;;;6.32;;
5876;SDS011;2964;42.144;24.730;2022-09-17T08:32:47;8.48;;;4.85;;
5876;SDS011;2964;42.144;24.730;2022-09-17T08:35:13;10.30;;;5.03;;
5876;SDS011;2964;42.144;24.730;2022-09-17T08:37:42;7.43;;;4.38;;
5876;SDS011;2964;42.144;24.730;2022-09-17T08:40:08;7.43;;;5.28;;
5876;SDS011;2964;42.144;24.730;2022-09-17T08:42:40;13.73;;;4.90;;
5876;SDS011;2964;42.144;24.730;2022-09-17T08:45:19;13.10;;;5.38;;
5876;SDS011;2964;42.144;24.730;2022-09-17T08:47:46;7.45;;;5.93;;
5876;SDS011;2964;42.144;24.730;2022-09-17T08:50:14;6.68;;;6.13;;
5876;SDS011;2964;42.144;24.730;2022-09-17T08:52:55;8.15;;;4.82;;
5876;SDS011;2964;42.144;24.730;2022-09-17T08:55:34;8.77;;;4.25;;
5876;SDS011;2964;42.144;24.730;2022-09-17T09:01:09;5.43;;;5.00;;
5876;SDS011;2964;42.144;24.730;2022-09-17T09:03:49;9.30;;;4.30;;
5876;SDS011;2964;42.144;24.730;2022-09-17T09:06:30;8.43;;;4.97;;
5876;SDS011;2964;42.144;24.730;2022-09-17T09:09:03;11.60;;;3.92;;
5876;SDS011;2964;42.144;24.730;2022-09-17T09:11:32;8.25;;;4.20;;
5876;SDS011;2964;42.144;24.730;2022-09-17T09:14:02;6.72;;;4.60;;
5876;SDS011;2964;42.144;24.730;2022-09-17T09:16:36;7.20;;;4.53;;
5876;SDS011;2964;42.144;24.730;2022-09-17T09:19:10;16.58;;;4.65;;
5876;SDS011;2964;42.144;24.730;2022-09-17T09:21:47;16.48;;;4.57;;
5876;SDS011;2964;42.144;24.730;2022-09-17T09:24:25;9.60;;;4.95;;
5876;SDS011;2964;42.144;24.730;2022-09-17T09:27:05;8.45;;;5.18;;
5876;SDS011;2964;42.144;24.730;2022-09-17T09:29:43;12.52;;;5.22;;
5876;SDS011;2964;42.144;24.730;2022-09-17T09:32:22;9.40;;;4.68;;
5876;SDS011;2964;42.144;24.730;2022-09-17T09:34:58;9.00;;;4.40;;
5876;SDS011;2964;42.144;24.730;2022-09-17T09:37:28;9.98;;;4.40;;
5876;SDS011;2964;42.144;24.730;2022-09-17T09:39:59;8.15;;;5.07;;
5876;SDS011;2964;42.144;24.730;2022-09-17T09:42:33;9.20;;;6.40;;
5876;SDS011;2964;42.144;24.730;2022-09-17T09:45:10;6.90;;;3.85;;
5876;SDS011;2964;42.144;24.730;2022-09-17T09:47:44;10.57;;;8.65;;
5876;SDS011;2964;42.144;24.730;2022-09-17T09:50:30;10.45;;;3.75;;
5876;SDS011;2964;42.144;24.730;2022-09-17T09:53:06;11.48;;;8.93;;
5876;SDS011;2964;42.144;24.730;2022-09-17T09:55:57;8.57;;;4.28;;
5876;SDS011;2964;42.144;24.730;2022-09-17T09:58:30;8.07;;;4.20;;
5876;SDS011;2964;42.144;24.730;2022-09-17T10:01:01;8.13;;;3.88;;
5876;SDS011;2964;42.144;24.730;2022-09-17T10:03:29;6.60;;;5.95;;
5876;SDS011;2964;42.144;24.730;2022-09-17T10:05:57;14.48;;;4.50;;
5876;SDS011;2964;42.144;24.730;2022-09-17T10:08:26;9.48;;;4.32;;
5876;SDS011;2964;42.144;24.730;2022-09-17T10:10:55;8.43;;;4.57;;
5876;SDS011;2964;42.144;24.730;2022-09-17T10:13:24;13.52;;;4.78;;
5876;SDS011;2964;42.144;24.730;2022-09-17T10:15:51;13.23;;;8.65;;
5876;SDS011;2964;42.144;24.730;2022-09-17T10:18:19;11.15;;;4.65;;
5876;SDS011;2964;42.144;24.730;2022-09-17T10:20:55;8.30;;;4.40;;
5876;SDS011;2964;42.144;24.730;2022-09-17T10:23:24;9.98;;;4.88;;
5876;SDS011;2964;42.144;24.730;2022-09-17T10:25:53;17.67;;;5.28;;
5876;SDS011;2964;42.144;24.730;2022-09-17T10:28:28;28.25;;;6.50;;
5876;SDS011;2964;42.144;24.730;2022-09-17T10:30:59;23.23;;;6.75;;
5876;SDS011;2964;42.144;24.730;2022-09-17T10:33:28;20.80;;;6.97;;
5876;SDS011;2964;42.144;24.730;2022-09-17T10:36:01;25.40;;;7.13;;
5876;SDS011;2964;42.144;24.730;2022-09-17T10:38:31;18.77;;;7.80;;
5876;SDS011;2964;42.144;24.730;2022-09-17T10:41:07;14.52;;;5.80;;
5876;SDS011;2964;42.144;24.730;2022-09-17T10:43:36;16.65;;;10.25;;
5876;SDS011;2964;42.144;24.730;2022-09-17T10:46:03;20.13;;;7.13;;
5876;SDS011;2964;42.144;24.730;2022-09-17T10:48:30;16.45;;;6.72;;
5876;SDS011;2964;42.144;24.730;2022-09-17T10:51:05;9.07;;;6.57;;
5876;SDS011;2964;42.144;24.730;2022-09-17T10:53:36;13.00;;;7.45;;
5876;SDS011;2964;42.144;24.730;2022-09-17T10:56:31;18.58;;;10.38;;
5876;SDS011;2964;42.144;24.730;2022-09-17T10:59:02;11.85;;;7.57;;
5876;SDS011;2964;42.144;24.730;2022-09-17T11:01:49;8.70;;;7.72;;
5876;SDS011;2964;42.144;24.730;2022-09-17T11:04:29;16.33;;;7.78;;
5876;SDS011;2964;42.144;24.730;2022-09-17T11:10:12;13.35;;;7.20;;
5876;SDS011;2964;42.144;24.730;2022-09-17T11:12:50;11.52;;;8.15;;
5876;SDS011;2964;42.144;24.730;2022-09-17T11:15:28;12.55;;;7.22;;
5876;SDS011;2964;42.144;24.730;2022-09-17T11:18:03;10.80;;;7.22;;
5876;SDS011;2964;42.144;24.730;2022-09-17T11:20:46;14.30;;;6.13;;
5876;SDS011;2964;42.144;24.730;2022-09-17T11:23:30;11.07;;;5.30;;
5876;SDS011;2964;42.144;24.730;2022-09-17T11:26:12;8.37;;;5.90;;
5876;SDS011;2964;42.144;24.730;2022-09-17T11:28:55;9.33;;;4.97;;
5876;SDS011;2964;42.144;24.730;2022-09-17T11:31:35;6.90;;;3.70;;
5876;SDS011;2964;42.144;24.730;2022-09-17T11:34:13;5.17;;;2.93;;
5876;SDS011;2964;42.144;24.730;2022-09-17T11:36:58;8.30;;;3.40;;
5876;SDS011;2964;42.144;24.730;2022-09-17T11:39:32;6.77;;;3.00;;
5876;SDS011;2964;42.144;24.730;2022-09-17T11:42:08;3.20;;;2.90;;
5876;SDS011;2964;42.144;24.730;2022-09-17T11:44:40;5.73;;;3.17;;
5876;SDS011;2964;42.144;24.730;2022-09-17T11:47:13;3.70;;;3.50;;
5876;SDS011;2964;42.144;24.730;2022-09-17T11:49:45;3.50;;;3.20;;
5876;SDS011;2964;42.144;24.730;2022-09-17T11:52:17;3.50;;;3.27;;
5876;SDS011;2964;42.144;24.730;2022-09-17T11:54:49;3.80;;;2.57;;
5876;SDS011;2964;42.144;24.730;2022-09-17T11:57:24;2.97;;;2.73;;
5876;SDS011;2964;42.144;24.730;2022-09-17T11:59:53;3.43;;;2.40;;
5876;SDS011;2964;42.144;24.730;2022-09-17T12:02:30;3.30;;;3.10;;
5876;SDS011;2964;42.144;24.730;2022-09-17T12:05:08;3.70;;;2.70;;
5876;SDS011;2964;42.144;24.730;2022-09-17T12:07:44;3.00;;;2.70;;
5876;SDS011;2964;42.144;24.730;2022-09-17T12:10:20;2.97;;;2.77;;
5876;SDS011;2964;42.144;24.730;2022-09-17T12:12:59;4.00;;;3.07;;
5876;SDS011;2964;42.144;24.730;2022-09-17T12:15:33;4.33;;;2.70;;
5876;SDS011;2964;42.144;24.730;2022-09-17T12:18:15;2.83;;;2.63;;
5876;SDS011;2964;42.144;24.730;2022-09-17T12:20:48;3.40;;;2.43;;
5876;SDS011;2964;42.144;24.730;2022-09-17T12:23:21;5.80;;;4.33;;
5876;SDS011;2964;42.144;24.730;2022-09-17T12:25:59;7.57;;;6.83;;
5876;SDS011;2964;42.144;24.730;2022-09-17T12:28:38;4.80;;;2.70;;
5876;SDS011;2964;42.144;24.730;2022-09-17T12:31:15;5.33;;;3.73;;
5876;SDS011;2964;42.144;24.730;2022-09-17T12:33:49;5.00;;;3.23;;
5876;SDS011;2964;42.144;24.730;2022-09-17T12:36:26;6.30;;;3.30;;
5876;SDS011;2964;42.144;24.730;2022-09-17T12:42:11;5.53;;;2.70;;
5876;SDS011;2964;42.144;24.730;2022-09-17T12:44:59;2.80;;;1.83;;
5876;SDS011;2964;42.144;24.730;2022-09-17T12:47:54;2.47;;;2.27;;
5876;SDS011;2964;42.144;24.730;2022-09-17T12:50:43;3.40;;;2.37;;
5876;SDS011;2964;42.144;24.730;2022-09-17T12:53:21;4.17;;;3.77;;
5876;SDS011;2964;42.144;24.730;2022-09-17T12:55:59;4.93;;;4.53;;
5876;SDS011;2964;42.144;24.730;2022-09-17T12:58:35;6.50;;;5.93;;
5876;SDS011;2964;42.144;24.730;2022-09-17T13:01:16;6.20;;;5.73;;
5876;SDS011;2964;42.144;24.730;2022-09-17T13:03:48;8.30;;;6.33;;
5876;SDS011;2964;42.144;24.730;2022-09-17T13:06:33;7.93;;;7.20;;
5876;SDS011;2964;42.144;24.730;2022-09-17T13:12:38;9.27;;;8.27;;
5876;SDS011;2964;42.144;24.730;2022-09-17T13:15:18;6.87;;;4.87;;
5876;SDS011;2964;42.144;24.730;2022-09-17T13:18:05;4.73;;;4.33;;
5876;SDS011;2964;42.144;24.730;2022-09-17T13:20:40;5.00;;;4.57;;
5876;SDS011;2964;42.144;24.730;2022-09-17T13:23:27;6.77;;;5.97;;
5876;SDS011;2964;42.144;24.730;2022-09-17T13:25:59;5.80;;;5.50;;
5876;SDS011;2964;42.144;24.730;2022-09-17T13:28:35;4.65;;;4.35;;
5876;SDS011;2964;42.144;24.730;2022-09-17T13:31:03;4.87;;;4.57;;
5876;SDS011;2964;42.144;24.730;2022-09-17T13:36:40;5.50;;;4.87;;
5876;SDS011;2964;42.144;24.730;2022-09-17T13:39:10;4.80;;;3.80;;
5876;SDS011;2964;42.144;24.730;2022-09-17T13:41:53;8.60;;;5.90;;
5876;SDS011;2964;42.144;24.730;2022-09-17T13:44:26;4.32;;;4.03;;
5876;SDS011;2964;42.144;24.730;2022-09-17T13:46:53;4.60;;;4.07;;
5876;SDS011;2964;42.144;24.730;2022-09-17T13:49:43;9.80;;;8.63;;
5876;SDS011;2964;42.144;24.730;2022-09-17T13:52:13;10.18;;;9.38;;
5876;SDS011;2964;42.144;24.730;2022-09-17T13:54:40;6.10;;;5.50;;
5876;SDS011;2964;42.144;24.730;2022-09-17T13:57:11;5.45;;;2.50;;
5876;SDS011;2964;42.144;24.730;2022-09-17T13:59:51;4.32;;;3.03;;
5876;SDS011;2964;42.144;24.730;2022-09-17T14:08:09;4.28;;;3.97;;
5876;SDS011;2964;42.144;24.730;2022-09-17T14:11:16;5.68;;;5.32;;
5876;SDS011;2964;42.144;24.730;2022-09-17T14:14:32;9.00;;;8.20;;
5876;SDS011;2964;42.144;24.730;2022-09-17T14:20:23;7.35;;;5.32;;
5876;SDS011;2964;42.144;24.730;2022-09-17T14:22:54;5.32;;;4.82;;
5876;SDS011;2964;42.144;24.730;2022-09-17T14:25:24;4.70;;;4.13;;
5876;SDS011;2964;42.144;24.730;2022-09-17T14:27:57;5.72;;;3.38;;
5876;SDS011;2964;42.144;24.730;2022-09-17T14:30:28;6.40;;;5.32;;
5876;SDS011;2964;42.144;24.730;2022-09-17T14:32:57;3.55;;;3.25;;
5876;SDS011;2964;42.144;24.730;2022-09-17T14:35:32;4.28;;;3.65;;
5876;SDS011;2964;42.144;24.730;2022-09-17T14:38:06;8.13;;;3.15;;
5876;SDS011;2964;42.144;24.730;2022-09-17T14:40:40;28.30;;;4.47;;
5876;SDS011;2964;42.144;24.730;2022-09-17T14:43:12;6.55;;;3.72;;
5876;SDS011;2964;42.144;24.730;2022-09-17T14:45:44;4.47;;;4.07;;
5876;SDS011;2964;42.144;24.730;2022-09-17T14:54:08;5.27;;;4.80;;
5876;SDS011;2964;42.144;24.730;2022-09-17T14:56:43;4.70;;;4.30;;
5876;SDS011;2964;42.144;24.730;2022-09-17T14:59:16;4.68;;;4.40;;
5876;SDS011;2964;42.144;24.730;2022-09-17T15:01:46;7.57;;;6.88;;
5876;SDS011;2964;42.144;24.730;2022-09-17T15:04:19;7.82;;;7.15;;
5876;SDS011;2964;42.144;24.730;2022-09-17T15:06:47;6.77;;;5.17;;
5876;SDS011;2964;42.144;24.730;2022-09-17T15:09:16;7.15;;;6.45;;
5876;SDS011;2964;42.144;24.730;2022-09-17T15:11:48;6.23;;;5.63;;
5876;SDS011;2964;42.144;24.730;2022-09-17T15:14:19;10.43;;;5.70;;
5876;SDS011;2964;42.144;24.730;2022-09-17T15:16:49;11.52;;;5.35;;
5876;SDS011;2964;42.144;24.730;2022-09-17T15:19:21;5.95;;;5.45;;
5876;SDS011;2964;42.144;24.730;2022-09-17T15:21:49;9.30;;;5.63;;
5876;SDS011;2964;42.144;24.730;2022-09-17T15:24:22;8.20;;;5.30;;
5876;SDS011;2964;42.144;24.730;2022-09-17T15:27:02;11.35;;;10.43;;
5876;SDS011;2964;42.144;24.730;2022-09-17T15:29:36;8.75;;;7.80;;
5876;SDS011;2964;42.144;24.730;2022-09-17T15:32:07;12.80;;;10.38;;
5876;SDS011;2964;42.144;24.730;2022-09-17T15:34:37;6.78;;;5.18;;
5876;SDS011;2964;42.144;24.730;2022-09-17T15:37:04;7.40;;;6.00;;
5876;SDS011;2964;42.144;24.730;2022-09-17T15:39:38;8.07;;;7.37;;
5876;SDS011;2964;42.144;24.730;2022-09-17T15:42:16;7.13;;;5.60;;
5876;SDS011;2964;42.144;24.730;2022-09-17T15:44:45;6.57;;;5.10;;
5876;SDS011;2964;42.144;24.730;2022-09-17T15:50:11;6.17;;;5.67;;
5876;SDS011;2964;42.144;24.730;2022-09-17T15:52:40;7.17;;;4.60;;
5876;SDS011;2964;42.144;24.730;2022-09-17T15:57:54;15.40;;;7.10;;
5876;SDS011;2964;42.144;24.730;2022-09-17T16:00:22;15.48;;;7.70;;
5876;SDS011;2964;42.144;24.730;2022-09-17T16:02:50;11.37;;;6.00;;
5876;SDS011;2964;42.144;24.730;2022-09-17T16:08:17;8.27;;;5.17;;